Time;durP1;ratioP1;P1;durP2;ratioP2;P2;SDS_P1;SDS_P2;PMS_P1;PMS_P2;Temp;Humidity;BMP_temperature;BMP_pressure;BME280_temperature;BME280_humidity;BME280_pressure;Samples;Min_cycle;Max_cycle;Signal;HPM_P1;HPM_P2
2023/01/19 00:00:59;;;;;;;0.10;0.10;;;;;;;3.53;88.99;100159.84;5053443;27;99258;-29
2023/01/19 00:03:25;;;;;;;0.77;0.50;;;;;;;3.50;89.76;100167.97;5053101;27;105998;-29
2023/01/19 00:05:51;;;;;;;1.75;0.20;;;;;;;3.45;89.52;100157.47;5053709;27;96561;-29
2023/01/19 00:08:17;;;;;;;0.00;0.00;;;;;;;3.46;90.07;100164.56;5052200;27;96792;-29
2023/01/19 00:10:47;;;;;;;0.10;0.05;;;;;;;3.44;89.80;100168.25;5051921;27;100835;-29
2023/01/19 00:13:13;;;;;;;0.10;0.10;;;;;;;3.45;90.08;100172.66;5052161;27;100877;-30
2023/01/19 00:15:38;;;;;;;0.77;0.57;;;;;;;3.40;90.45;100165.69;5051729;27;96723;-29
2023/01/19 00:18:04;;;;;;;0.17;0.17;;;;;;;3.43;90.53;100169.19;5053263;27;97133;-32
2023/01/19 00:20:34;;;;;;;0.00;0.00;;;;;;;3.39;90.75;100169.31;5052745;27;99156;-29
2023/01/19 00:23:00;;;;;;;0.38;0.28;;;;;;;3.40;91.09;100181.75;5051606;27;100665;-30
2023/01/19 00:25:25;;;;;;;0.00;0.00;;;;;;;3.40;91.23;100184.44;5053389;27;96565;-29
2023/01/19 00:27:50;;;;;;;2.78;0.45;;;;;;;3.40;91.40;100192.47;5053111;27;97161;-29
2023/01/19 00:30:16;;;;;;;3.15;0.98;;;;;;;3.37;91.95;100192.59;5052334;27;98754;-30
2023/01/19 00:32:41;;;;;;;2.42;0.30;;;;;;;3.34;92.52;100208.81;5052688;27;97231;-29
2023/01/19 00:35:07;;;;;;;0.10;0.10;;;;;;;3.30;92.34;100201.81;5052365;27;98598;-32
2023/01/19 00:37:32;;;;;;;0.00;0.00;;;;;;;3.32;92.99;100201.78;5053580;27;96729;-28
2023/01/19 00:39:57;;;;;;;0.45;0.20;;;;;;;3.30;92.21;100198.28;5053042;27;97961;-29
2023/01/19 00:42:43;;;;;;;0.00;0.00;;;;;;;3.26;92.55;100189.50;5052857;27;105209;-29
2023/01/19 00:45:11;;;;;;;0.13;0.10;;;;;;;3.24;92.94;100195.84;5052421;27;96602;-28
2023/01/19 00:47:38;;;;;;;0.00;0.00;;;;;;;3.25;92.87;100205.66;5051418;27;96811;-29
2023/01/19 00:50:04;;;;;;;0.00;0.00;;;;;;;3.25;93.00;100206.50;5051458;27;100865;-30
2023/01/19 00:52:30;;;;;;;0.65;0.20;;;;;;;3.23;93.58;100212.84;5051384;27;100746;-30
2023/01/19 00:54:55;;;;;;;0.00;0.00;;;;;;;3.23;93.24;100216.41;5053166;27;97431;-29
2023/01/19 00:57:21;;;;;;;0.00;0.00;;;;;;;3.24;93.92;100206.56;5052803;27;96492;-29
2023/01/19 00:59:46;;;;;;;0.00;0.00;;;;;;;3.20;93.87;100208.50;5052705;27;97300;-29
2023/01/19 01:02:12;;;;;;;0.20;0.10;;;;;;;3.19;93.60;100210.31;5052508;27;109472;-29
2023/01/19 01:04:37;;;;;;;0.00;0.00;;;;;;;3.14;94.50;100224.81;5052597;27;96808;-29
2023/01/19 01:07:03;;;;;;;0.00;0.00;;;;;;;3.15;94.09;100224.75;5052442;27;96874;-29
2023/01/19 01:09:29;;;;;;;0.10;0.10;;;;;;;3.16;94.12;100234.50;5052034;27;99722;-29
2023/01/19 01:11:54;;;;;;;2.55;0.10;;;;;;;3.13;93.72;100221.25;5052263;27;99307;-29
2023/01/19 01:14:19;;;;;;;0.00;0.00;;;;;;;3.14;94.12;100235.50;5052341;27;96475;-29
2023/01/19 01:16:45;;;;;;;0.00;0.00;;;;;;;3.12;94.27;100230.25;5052504;27;96693;-29
2023/01/19 01:19:10;;;;;;;0.00;0.00;;;;;;;3.09;93.91;100229.47;5052449;27;98015;-29
2023/01/19 01:21:37;;;;;;;0.00;0.00;;;;;;;3.07;94.25;100232.19;5052244;27;99100;-29
2023/01/19 01:24:03;;;;;;;0.00;0.00;;;;;;;3.09;94.67;100232.16;5051030;27;96909;-30
2023/01/19 01:26:28;;;;;;;0.05;0.05;;;;;;;3.09;94.45;100230.34;5052689;27;96778;-29
2023/01/19 01:28:54;;;;;;;0.00;0.00;;;;;;;3.09;93.49;100234.81;5051791;27;104584;-28
2023/01/19 01:31:19;;;;;;;0.15;0.13;;;;;;;3.08;94.33;100236.63;5052227;27;99231;-29
2023/01/19 01:33:44;;;;;;;0.00;0.00;;;;;;;3.09;94.26;100251.75;5051622;27;96499;-29
2023/01/19 01:36:10;;;;;;;0.22;0.10;;;;;;;3.11;94.65;100265.06;5052089;27;96915;-29
2023/01/19 01:38:37;;;;;;;0.43;0.13;;;;;;;3.10;93.82;100274.00;5050617;27;100841;-30
2023/01/19 01:41:03;;;;;;;0.40;0.30;;;;;;;3.09;94.47;100267.81;5051959;27;99333;-29
2023/01/19 01:43:44;;;;;;;0.00;0.00;;;;;;;3.05;94.31;100266.19;5052330;27;96480;-29
2023/01/19 01:46:09;;;;;;;0.00;0.00;;;;;;;3.04;94.35;100274.28;5052716;27;96891;-29
2023/01/19 01:48:36;;;;;;;0.00;0.00;;;;;;;3.03;95.15;100268.06;5055778;27;97406;-30
2023/01/19 01:51:23;;;;;;;0.00;0.00;;;;;;;3.00;94.85;100273.50;5054564;27;100773;-29
2023/01/19 01:53:54;;;;;;;0.00;0.00;;;;;;;2.97;94.70;100271.84;5055782;27;96636;-28
2023/01/19 01:56:29;;;;;;;0.00;0.00;;;;;;;2.97;94.53;100269.16;5054429;27;96616;-29
2023/01/19 01:58:55;;;;;;;0.80;0.32;;;;;;;2.99;94.89;100282.47;5054780;27;99443;-29
2023/01/19 02:04:04;;;;;;;0.00;0.00;;;;;;;2.96;94.82;100282.63;5055806;27;96650;-31
2023/01/19 02:06:30;;;;;;;0.00;0.00;;;;;;;2.98;94.44;100286.97;5055428;27;96849;-29
2023/01/19 02:14:36;;;;;;;0.00;0.00;;;;;;;2.96;93.93;100272.78;5055453;27;96673;-31
2023/01/19 02:17:02;;;;;;;0.00;0.00;;;;;;;3.00;93.74;100283.34;5054425;27;96880;-29
2023/01/19 02:19:35;;;;;;;0.00;0.00;;;;;;;2.96;94.05;100296.84;5053801;27;100826;-29
2023/01/19 02:22:13;;;;;;;0.00;0.00;;;;;;;2.95;94.92;100303.13;5053461;27;98918;-29
2023/01/19 02:24:39;;;;;;;0.00;0.00;;;;;;;2.92;94.15;100305.91;5053379;27;96938;-29
2023/01/19 02:27:06;;;;;;;0.00;0.00;;;;;;;2.91;94.29;100308.69;5053742;27;96800;-29
2023/01/19 02:29:33;;;;;;;0.38;0.03;;;;;;;2.89;94.79;100316.75;5053247;27;100916;-29
2023/01/19 02:32:00;;;;;;;0.00;0.00;;;;;;;2.85;95.32;100319.59;5055101;27;97356;-29
2023/01/19 02:34:26;;;;;;;0.00;0.00;;;;;;;2.76;95.12;100326.16;5053486;27;96712;-29
2023/01/19 02:36:57;;;;;;;10.57;0.22;;;;;;;2.72;94.86;100338.78;5053737;27;96896;-29
2023/01/19 02:39:29;;;;;;;0.00;0.00;;;;;;;2.69;94.54;100346.94;5053272;27;101096;-29
2023/01/19 02:41:58;;;;;;;;;;;;;;;2.72;94.42;100338.78;5054094;27;100818;-29
2023/01/19 02:44:25;;;;;;;0.00;0.00;;;;;;;2.69;94.61;100340.69;5053707;27;96787;-29
2023/01/19 02:46:53;;;;;;;0.00;0.00;;;;;;;2.67;94.67;100335.41;5053357;27;96840;-30
2023/01/19 02:49:18;;;;;;;0.08;0.05;;;;;;;2.69;94.88;100336.25;5052541;27;101049;-30
2023/01/19 02:51:44;;;;;;;0.00;0.00;;;;;;;2.68;94.35;100331.81;5054751;27;98267;-29
2023/01/19 02:54:28;;;;;;;0.65;0.28;;;;;;;2.73;94.11;100336.97;5054255;27;96713;-29
2023/01/19 02:57:11;;;;;;;0.00;0.00;;;;;;;2.69;94.11;100343.38;5054480;27;96498;-30
2023/01/19 02:59:56;;;;;;;0.00;0.00;;;;;;;2.66;94.33;100343.47;5054647;27;97511;-29
2023/01/19 03:02:36;;;;;;;0.00;0.00;;;;;;;2.64;94.32;100348.88;5052990;27;100707;-29
2023/01/19 03:05:23;;;;;;;0.00;0.00;;;;;;;2.62;94.87;100353.44;5053311;27;96542;-30
2023/01/19 03:08:13;;;;;;;0.08;0.08;;;;;;;2.60;94.78;100349.94;5054817;27;96790;-30
2023/01/19 03:11:00;;;;;;;0.00;0.00;;;;;;;2.60;94.99;100335.69;5054271;27;97354;-29
2023/01/19 03:13:46;;;;;;;1.20;0.08;;;;;;;2.55;94.30;100327.81;5054393;27;99493;-29
2023/01/19 03:16:19;;;;;;;0.00;0.00;;;;;;;2.57;94.73;100322.44;5052540;27;97344;-29
2023/01/19 03:18:52;;;;;;;0.45;0.20;;;;;;;2.55;94.59;100309.13;5054606;27;96528;-28
2023/01/19 03:21:22;;;;;;;0.00;0.00;;;;;;;2.60;94.43;100320.53;5052883;27;100796;-29
2023/01/19 03:23:50;;;;;;;0.00;0.00;;;;;;;2.60;94.21;100315.19;5053852;27;97732;-29
2023/01/19 03:26:20;;;;;;;0.15;0.05;;;;;;;2.61;94.19;100308.91;5052905;27;97206;-29
2023/01/19 03:28:47;;;;;;;0.00;0.00;;;;;;;2.61;94.24;100316.91;5052893;27;96753;-29
2023/01/19 03:31:16;;;;;;;0.15;0.08;;;;;;;2.60;94.42;100312.50;5052311;27;101070;-31
2023/01/19 03:33:48;;;;;;;0.20;0.10;;;;;;;2.59;94.31;100309.88;5052605;27;99794;-29
2023/01/19 03:36:18;;;;;;;0.00;0.00;;;;;;;2.61;94.16;100321.41;5052628;27;96714;-29
2023/01/19 03:38:47;;;;;;;0.00;0.00;;;;;;;2.56;94.30;100310.88;5052781;27;96671;-29
2023/01/19 03:41:16;;;;;;;0.00;0.00;;;;;;;2.55;94.49;100312.69;5051986;27;101280;-29
2023/01/19 03:43:43;;;;;;;0.57;0.15;;;;;;;2.54;95.13;100361.72;5052367;27;100784;-29
2023/01/19 03:46:10;;;;;;;0.00;0.00;;;;;;;2.57;95.42;100374.09;5052348;27;96625;-29
2023/01/19 03:48:36;;;;;;;0.00;0.00;;;;;;;2.55;95.24;100375.94;5053496;27;96731;-29
2023/01/19 03:51:08;;;;;;;0.13;0.10;;;;;;;2.58;94.63;100350.94;5052162;27;100936;-31
2023/01/19 03:53:33;;;;;;;0.22;0.15;;;;;;;2.60;94.58;100344.59;5052264;27;100991;-30
2023/01/19 03:55:59;;;;;;;0.20;0.10;;;;;;;2.58;94.93;100337.56;5053692;27;96563;-29
2023/01/19 03:58:25;;;;;;;0.00;0.00;;;;;;;2.61;94.76;100353.47;5052688;27;96883;-29
2023/01/19 04:00:51;;;;;;;0.00;0.00;;;;;;;2.61;94.82;100349.00;5052076;27;100822;-29
2023/01/19 04:03:17;;;;;;;0.25;0.10;;;;;;;2.65;94.55;100352.44;5053260;27;107846;-29
2023/01/19 04:05:44;;;;;;;0.40;0.32;;;;;;;2.69;94.70;100370.09;5051727;27;97146;-29
2023/01/19 04:08:10;;;;;;;0.38;0.20;;;;;;;2.69;94.30;100354.97;5051222;27;96800;-29
2023/01/19 04:10:36;;;;;;;0.05;0.05;;;;;;;2.72;94.46;100367.34;5051899;27;100918;-29
2023/01/19 04:13:01;;;;;;;0.32;0.05;;;;;;;2.73;93.97;100355.69;5053092;27;99298;-30
2023/01/19 04:15:28;;;;;;;0.30;0.20;;;;;;;2.72;94.06;100362.84;5053391;27;96529;-31
2023/01/19 04:17:55;;;;;;;0.00;0.00;;;;;;;2.73;94.61;100372.59;5052119;27;96927;-29
2023/01/19 04:20:21;;;;;;;0.30;0.15;;;;;;;2.77;94.39;100389.44;5051932;27;100911;-30
2023/01/19 04:22:47;;;;;;;0.10;0.00;;;;;;;2.71;94.36;100373.59;5053441;27;97756;-28
2023/01/19 04:25:13;;;;;;;0.10;0.10;;;;;;;2.74;94.94;100377.03;5051801;27;96482;-29
2023/01/19 04:27:38;;;;;;;0.00;0.00;;;;;;;2.75;94.17;100361.88;5053256;27;96880;-29
2023/01/19 04:30:04;;;;;;;0.00;0.00;;;;;;;2.79;94.70;100373.31;5052002;27;103989;-29
2023/01/19 04:32:31;;;;;;;0.00;0.00;;;;;;;2.81;94.44;100363.44;5053165;27;98188;-30
2023/01/19 04:34:57;;;;;;;4.25;0.22;;;;;;;2.82;94.20;100359.84;5051744;27;96531;-29
2023/01/19 04:37:22;;;;;;;1.08;0.30;;;;;;;2.83;94.62;100359.75;5053441;27;96873;-30
2023/01/19 04:39:48;;;;;;;0.80;0.10;;;;;;;2.86;94.59;100365.03;5052778;27;100503;-29
2023/01/19 04:42:13;;;;;;;7.38;0.52;;;;;;;2.88;94.71;100370.28;5052647;27;103866;-28
2023/01/19 04:44:38;;;;;;;0.63;0.32;;;;;;;2.89;94.78;100361.34;5053246;27;96419;-29
2023/01/19 04:47:04;;;;;;;0.00;0.00;;;;;;;2.90;94.37;100369.31;5053487;27;100002;-29
2023/01/19 04:49:29;;;;;;;1.27;0.98;;;;;;;2.87;94.95;100356.06;5052833;27;97966;-29
2023/01/19 04:51:55;;;;;;;1.00;0.45;;;;;;;2.89;93.83;100361.34;5052483;27;99202;-31
2023/01/19 04:54:20;;;;;;;0.93;0.25;;;;;;;2.87;93.63;100345.34;5052309;27;96560;-30
2023/01/19 04:56:45;;;;;;;0.13;0.10;;;;;;;2.89;94.37;100354.19;5052684;27;96697;-32
2023/01/19 04:59:11;;;;;;;0.00;0.00;;;;;;;2.95;94.14;100363.78;5052479;27;97906;-30
2023/01/19 05:01:36;;;;;;;2.10;0.28;;;;;;;2.97;94.50;100361.91;5052782;27;97788;-29
2023/01/19 05:04:05;;;;;;;0.57;0.15;;;;;;;2.98;93.91;100372.56;5052396;27;107461;-29
2023/01/19 05:06:30;;;;;;;1.55;0.32;;;;;;;2.98;94.37;100372.56;5052727;27;96510;-29
2023/01/19 05:08:55;;;;;;;0.00;0.00;;;;;;;3.00;93.54;100376.97;5052729;27;97504;-29
2023/01/19 05:11:21;;;;;;;0.00;0.00;;;;;;;2.98;94.49;100377.94;5052757;27;101674;-30
2023/01/19 05:13:46;;;;;;;0.13;0.13;;;;;;;2.96;94.17;100382.47;5052149;27;104392;-29
2023/01/19 05:16:12;;;;;;;0.80;0.20;;;;;;;2.95;94.29;100383.38;5052213;27;103966;-29
2023/01/19 05:18:38;;;;;;;1.38;0.40;;;;;;;2.96;94.40;100382.47;5051978;27;97450;-29
2023/01/19 05:21:04;;;;;;;1.15;0.73;;;;;;;2.96;94.48;100385.13;5052363;27;97855;-29
2023/01/19 05:23:31;;;;;;;0.50;0.30;;;;;;;2.95;94.30;100385.19;5050996;27;96578;-29
2023/01/19 05:25:59;;;;;;;0.30;0.22;;;;;;;2.96;94.18;100381.59;5052553;27;96829;-30
2023/01/19 05:28:28;;;;;;;0.20;0.00;;;;;;;2.92;94.22;100394.19;5050873;27;101363;-29
2023/01/19 05:30:54;;;;;;;0.10;0.10;;;;;;;2.93;94.18;100382.59;5050539;27;100791;-29
2023/01/19 05:33:20;;;;;;;0.00;0.00;;;;;;;2.94;94.48;100391.47;5052278;27;96430;-29
2023/01/19 05:35:48;;;;;;;0.00;0.00;;;;;;;2.90;94.09;100384.47;5051092;27;96642;-31
2023/01/19 05:38:13;;;;;;;1.15;0.40;;;;;;;2.88;94.22;100389.88;5052104;27;97349;-29
2023/01/19 05:40:39;;;;;;;0.77;0.65;;;;;;;2.89;94.49;100399.66;5052055;27;97777;-29
2023/01/19 05:43:04;;;;;;;0.77;0.35;;;;;;;2.86;94.75;100397.13;5051311;27;109530;-30
2023/01/19 05:45:29;;;;;;;1.17;0.22;;;;;;;2.83;94.76;100402.56;5052044;27;96917;-29
2023/01/19 05:47:55;;;;;;;0.30;0.30;;;;;;;2.81;94.34;100399.06;5051949;27;97579;-29
2023/01/19 05:50:20;;;;;;;0.88;0.55;;;;;;;2.81;94.24;100400.88;5051828;27;106242;-29
2023/01/19 05:52:45;;;;;;;0.15;0.15;;;;;;;2.77;94.54;100402.81;5052188;27;97653;-30
2023/01/19 05:55:11;;;;;;;11.20;0.60;;;;;;;2.73;94.27;100402.03;5051740;27;97568;-29
2023/01/19 05:57:36;;;;;;;0.47;0.32;;;;;;;2.75;94.63;100401.97;5050470;27;100866;-29
2023/01/19 06:00:04;;;;;;;1.15;0.30;;;;;;;2.72;94.09;100404.78;5052452;27;98206;-30
2023/01/19 06:02:29;;;;;;;0.10;0.10;;;;;;;2.69;94.48;100402.19;5050606;27;96542;-29
2023/01/19 06:04:55;;;;;;;4.75;0.55;;;;;;;2.71;94.29;100394.97;5051937;27;96919;-29
2023/01/19 06:07:20;;;;;;;1.40;0.75;;;;;;;2.74;94.28;100405.56;5051073;27;99406;-30
2023/01/19 06:09:46;;;;;;;4.63;0.08;;;;;;;2.72;94.04;100408.31;5051722;27;97912;-29
2023/01/19 06:12:11;;;;;;;0.08;0.08;;;;;;;2.73;93.84;100409.19;5051844;27;98740;-30
2023/01/19 06:14:36;;;;;;;1.67;0.32;;;;;;;2.75;94.01;100423.38;5051240;27;108805;-28
2023/01/19 06:17:04;;;;;;;1.30;0.10;;;;;;;2.72;94.28;100419.00;5051421;27;99622;-30
2023/01/19 06:19:30;;;;;;;0.38;0.20;;;;;;;2.72;94.29;100421.69;5050298;27;98827;-28
2023/01/19 06:21:55;;;;;;;0.82;0.35;;;;;;;2.72;93.70;100434.19;5051301;27;97073;-29
2023/01/19 06:24:21;;;;;;;0.43;0.35;;;;;;;2.73;93.69;100435.91;5052005;27;96786;-29
2023/01/19 06:26:47;;;;;;;0.17;0.08;;;;;;;2.72;93.94;100445.75;5051516;27;97988;-29
2023/01/19 06:29:13;;;;;;;0.00;0.00;;;;;;;2.70;93.91;100447.59;5051501;27;97810;-29
2023/01/19 06:31:39;;;;;;;0.00;0.00;;;;;;;2.66;93.61;100453.97;5052207;27;96592;-29
2023/01/19 06:34:04;;;;;;;0.85;0.40;;;;;;;2.68;93.67;100464.63;5053675;27;96834;-30
2023/01/19 06:36:30;;;;;;;1.38;0.43;;;;;;;2.70;93.92;100468.13;5054781;27;98013;-29
2023/01/19 06:38:55;;;;;;;0.00;0.00;;;;;;;2.71;94.35;100468.06;5054880;27;97634;-29
2023/01/19 06:41:20;;;;;;;0.30;0.22;;;;;;;2.73;93.82;100468.00;5055300;27;96482;-31
2023/01/19 06:43:46;;;;;;;0.70;0.20;;;;;;;2.74;94.43;100481.34;5054627;27;105504;-29
2023/01/19 06:46:12;;;;;;;0.00;0.00;;;;;;;2.74;94.16;100476.00;5054662;27;98967;-29
2023/01/19 06:48:37;;;;;;;0.00;0.00;;;;;;;2.78;93.60;100473.19;5054727;27;99293;-29
2023/01/19 06:51:04;;;;;;;0.00;0.00;;;;;;;2.78;93.17;100473.19;5054698;27;96465;-29
2023/01/19 06:53:30;;;;;;;0.00;0.00;;;;;;;2.82;93.05;100477.53;5053442;27;96808;-30
2023/01/19 06:56:00;;;;;;;0.60;0.08;;;;;;;2.82;93.38;100486.41;5054106;27;98010;-29
2023/01/19 06:58:30;;;;;;;0.38;0.10;;;;;;;2.82;93.27;100486.41;5053072;27;100894;-29
2023/01/19 07:01:01;;;;;;;4.75;0.13;;;;;;;2.79;92.68;100480.28;5053334;27;96664;-29
2023/01/19 07:03:26;;;;;;;1.50;0.40;;;;;;;2.78;92.36;100486.56;5054543;27;96642;-29
2023/01/19 07:05:52;;;;;;;0.00;0.00;;;;;;;2.80;92.83;100492.75;5054359;27;99662;-29
2023/01/19 07:08:18;;;;;;;0.00;0.00;;;;;;;2.78;93.09;100490.09;5052841;27;98778;-29
2023/01/19 07:10:43;;;;;;;0.00;0.00;;;;;;;2.80;93.14;100511.47;5054560;27;96845;-30
2023/01/19 07:13:09;;;;;;;0.70;0.45;;;;;;;2.75;92.91;100507.13;5054909;27;96809;-29
2023/01/19 07:15:36;;;;;;;0.82;0.30;;;;;;;2.73;93.44;100509.00;5054309;27;97892;-29
2023/01/19 07:18:06;;;;;;;1.25;0.17;;;;;;;2.73;93.27;100517.00;5053980;27;99692;-29
2023/01/19 07:20:32;;;;;;;0.35;0.20;;;;;;;2.73;93.11;100521.50;5052403;27;97198;-29
2023/01/19 07:22:57;;;;;;;0.00;0.00;;;;;;;2.73;93.45;100516.16;5052990;27;96962;-29
2023/01/19 07:25:23;;;;;;;0.00;0.00;;;;;;;2.75;93.30;100530.34;5054376;27;97560;-29
2023/01/19 07:27:48;;;;;;;0.88;0.15;;;;;;;2.73;93.48;100521.50;5054209;27;97842;-30
2023/01/19 07:30:14;;;;;;;0.47;0.30;;;;;;;2.72;93.61;100525.97;5053917;27;96745;-29
2023/01/19 07:32:41;;;;;;;0.28;0.22;;;;;;;2.73;93.76;100533.06;5052839;27;96733;-29
2023/01/19 07:35:08;;;;;;;0.25;0.13;;;;;;;2.73;93.67;100534.88;5052557;27;100734;-29
2023/01/19 07:37:33;;;;;;;0.45;0.40;;;;;;;2.72;93.78;100538.47;5052547;27;100827;-29
2023/01/19 07:39:58;;;;;;;2.17;0.52;;;;;;;2.76;93.63;100548.13;5054105;27;96564;-30
2023/01/19 07:42:24;;;;;;;1.08;0.32;;;;;;;2.77;93.69;100539.19;5051873;27;96903;-29
2023/01/19 07:44:49;;;;;;;1.40;0.38;;;;;;;2.81;93.29;100542.63;5052465;27;99838;-29
2023/01/19 07:47:14;;;;;;;0.00;0.00;;;;;;;2.84;93.54;100547.88;5053550;27;106643;-29
2023/01/19 07:49:40;;;;;;;0.10;0.05;;;;;;;2.85;93.74;100546.94;5053937;27;96608;-30
2023/01/19 07:52:05;;;;;;;0.20;0.20;;;;;;;2.89;93.31;100559.28;5053703;27;96803;-31
2023/01/19 07:54:31;;;;;;;1.08;0.20;;;;;;;2.89;93.69;100561.97;5053666;27;98006;-29
2023/01/19 07:56:56;;;;;;;0.00;0.00;;;;;;;2.92;93.00;100565.38;5052107;27;100867;-29
2023/01/19 07:59:21;;;;;;;1.02;0.35;;;;;;;2.95;93.20;100572.44;5053494;27;96495;-30
2023/01/19 08:01:47;;;;;;;11.50;0.35;;;;;;;2.96;92.87;100575.06;5053846;27;96839;-30
2023/01/19 08:04:12;;;;;;;0.47;0.05;;;;;;;2.95;92.83;100565.28;5053546;27;103095;-29
2023/01/19 08:06:39;;;;;;;0.00;0.00;;;;;;;3.00;93.03;100569.59;5053568;27;97230;-30
2023/01/19 08:09:05;;;;;;;0.15;0.15;;;;;;;3.01;92.32;100576.72;5051707;27;96913;-29
2023/01/19 08:11:31;;;;;;;0.00;0.00;;;;;;;3.02;92.48;100591.84;5052102;27;96827;-29
2023/01/19 08:13:57;;;;;;;6.70;0.15;;;;;;;3.03;92.66;100604.25;5051808;27;100800;-30
2023/01/19 08:16:23;;;;;;;2.65;0.35;;;;;;;3.02;92.34;100599.84;5053086;27;97799;-29
2023/01/19 08:18:48;;;;;;;0.93;0.30;;;;;;;3.01;92.55;100598.13;5051944;27;96631;-29
2023/01/19 08:21:14;;;;;;;4.07;0.38;;;;;;;3.04;92.36;100598.88;5052433;27;96818;-29
2023/01/19 08:23:39;;;;;;;0.22;0.20;;;;;;;3.01;92.68;100592.78;5052627;27;99017;-30
2023/01/19 08:26:32;;;;;;;0.00;0.00;;;;;;;3.05;92.27;100605.09;5054026;27;97251;-31
2023/01/19 08:29:01;;;;;;;0.98;0.47;;;;;;;3.04;92.33;100608.72;5047343;27;96900;-32
2023/01/19 08:31:26;;;;;;;0.00;0.00;;;;;;;3.04;92.42;100608.72;5053313;27;96508;-29
2023/01/19 08:33:52;;;;;;;1.60;0.32;;;;;;;3.01;92.43;100601.66;5052428;27;99359;-29
2023/01/19 08:36:17;;;;;;;2.15;0.30;;;;;;;3.01;92.09;100607.00;5052782;27;99368;-29
2023/01/19 08:38:44;;;;;;;0.50;0.40;;;;;;;3.01;92.38;100612.38;5053173;27;96445;-29
2023/01/19 08:41:10;;;;;;;0.52;0.35;;;;;;;3.03;91.77;100612.28;5050551;27;97047;-30
2023/01/19 08:43:36;;;;;;;0.28;0.25;;;;;;;3.04;92.03;100614.06;5049047;27;100671;-29
2023/01/19 08:46:02;;;;;;;0.30;0.30;;;;;;;3.06;91.54;100606.84;5050868;27;99181;-29
2023/01/19 08:48:28;;;;;;;0.45;0.28;;;;;;;3.06;91.05;100612.22;5051274;27;97168;-30
2023/01/19 08:50:53;;;;;;;0.22;0.20;;;;;;;3.10;91.30;100621.84;5052614;27;98266;-29
2023/01/19 08:53:19;;;;;;;5.60;0.35;;;;;;;3.07;91.33;100614.81;5052794;27;97907;-29
2023/01/19 08:55:45;;;;;;;0.00;0.00;;;;;;;3.11;90.70;100619.13;5050946;27;101056;-29
2023/01/19 08:58:11;;;;;;;5.50;0.40;;;;;;;3.12;90.99;100618.22;5052340;27;96569;-28
2023/01/19 09:00:37;;;;;;;6.13;0.50;;;;;;;3.16;90.52;100624.34;5052791;27;96717;-29
2023/01/19 09:03:05;;;;;;;4.95;0.65;;;;;;;3.15;90.66;100625.28;5051187;27;100921;-30
2023/01/19 09:05:34;;;;;;;0.57;0.35;;;;;;;3.18;91.05;100626.03;5051153;27;100730;-30
2023/01/19 09:08:01;;;;;;;0.55;0.30;;;;;;;3.15;90.55;100620.78;5052497;27;96629;-29
2023/01/19 09:10:30;;;;;;;0.32;0.15;;;;;;;3.23;90.39;100633.91;5051179;27;96876;-29
2023/01/19 09:12:56;;;;;;;1.23;0.40;;;;;;;3.21;90.34;100627.72;5051048;27;100785;-29
2023/01/19 09:15:21;;;;;;;0.15;0.13;;;;;;;3.25;90.13;100634.72;5052500;27;98046;-29
2023/01/19 09:17:47;;;;;;;0.20;0.20;;;;;;;3.26;90.26;100628.44;5052677;27;96535;-29
2023/01/19 09:20:12;;;;;;;0.52;0.28;;;;;;;3.32;90.25;100646.09;5052243;27;106116;-29
2023/01/19 09:22:38;;;;;;;2.05;0.28;;;;;;;3.34;90.35;100641.56;5051429;27;99606;-29
2023/01/19 09:25:06;;;;;;;0.00;0.00;;;;;;;3.35;89.55;100643.31;5050829;27;100928;-30
2023/01/19 09:27:31;;;;;;;0.25;0.25;;;;;;;3.36;89.62;100643.25;5052463;27;96518;-29
2023/01/19 09:29:56;;;;;;;0.00;0.00;;;;;;;3.42;89.02;100647.53;5051363;27;96866;-29
2023/01/19 09:32:22;;;;;;;0.32;0.20;;;;;;;3.49;88.64;100651.72;5051926;27;101636;-28
2023/01/19 09:34:47;;;;;;;0.13;0.13;;;;;;;3.53;88.74;100652.50;5052010;27;99269;-29
2023/01/19 09:37:14;;;;;;;0.28;0.20;;;;;;;3.58;88.47;100648.72;5052054;27;96615;-29
2023/01/19 09:39:40;;;;;;;0.32;0.17;;;;;;;3.66;88.27;100653.78;5051322;27;96571;-30
2023/01/19 09:42:29;;;;;;;0.30;0.25;;;;;;;3.78;87.87;100653.34;5051835;27;98947;-28
2023/01/19 09:44:55;;;;;;;9.60;0.20;;;;;;;3.91;87.38;100660.91;5039689;27;99594;-29
2023/01/19 09:47:25;;;;;;;3.15;0.85;;;;;;;4.02;87.21;100661.41;5051437;27;108514;-29
2023/01/19 09:49:57;;;;;;;0.75;0.10;;;;;;;4.16;87.27;100658.22;5050616;27;96965;-29
2023/01/19 09:52:23;;;;;;;0.43;0.10;;;;;;;4.30;86.65;100668.41;5050593;27;101027;-29
2023/01/19 09:54:48;;;;;;;0.95;0.50;;;;;;;4.50;86.16;100675.66;5050446;27;100653;-29
2023/01/19 09:57:13;;;;;;;2.83;0.28;;;;;;;4.63;84.96;100667.06;5051980;27;96459;-31
2023/01/19 09:59:42;;;;;;;0.28;0.10;;;;;;;4.77;84.40;100669.22;5052294;27;96860;-28
2023/01/19 10:02:34;;;;;;;1.15;0.30;;;;;;;4.93;83.45;100671.25;5050384;27;101022;-29
2023/01/19 10:05:30;;;;;;;1.40;0.50;;;;;;;5.10;80.34;100668.72;5050789;27;98996;-29
2023/01/19 10:08:23;;;;;;;0.40;0.30;;;;;;;5.29;81.08;100682.25;5054903;27;96670;-29
2023/01/19 10:10:53;;;;;;;0.20;0.20;;;;;;;5.44;79.93;100676.25;5055736;27;96459;-29
2023/01/19 10:13:45;;;;;;;0.88;0.43;;;;;;;5.53;78.21;100680.38;5053431;27;101671;-29
2023/01/19 10:16:17;;;;;;;0.20;0.17;;;;;;;5.66;77.52;100686.06;5053840;27;100919;-29
2023/01/19 10:18:50;;;;;;;0.80;0.43;;;;;;;5.82;78.02;100692.50;5053760;27;96530;-31
2023/01/19 10:21:21;;;;;;;0.10;0.10;;;;;;;5.95;78.08;100682.97;5055566;27;96606;-29
2023/01/19 10:23:57;;;;;;;0.10;0.10;;;;;;;6.08;76.78;100686.00;5054682;27;99672;-29
2023/01/19 10:26:32;;;;;;;0.47;0.20;;;;;;;6.12;74.20;100686.72;5053843;27;100962;-30
2023/01/19 10:29:05;;;;;;;0.00;0.00;;;;;;;6.15;74.52;100700.03;5053570;27;96604;-31
2023/01/19 10:31:32;;;;;;;0.00;0.00;;;;;;;6.26;74.60;100695.03;5055924;27;96513;-29
2023/01/19 10:33:58;;;;;;;0.00;0.00;;;;;;;6.38;74.14;100689.06;5053490;27;101004;-31
2023/01/19 10:36:28;;;;;;;0.88;0.22;;;;;;;6.48;74.39;100696.72;5054695;27;97760;-29
2023/01/19 10:38:54;;;;;;;0.13;0.10;;;;;;;6.65;74.40;100695.91;5053213;27;97432;-29
2023/01/19 10:41:30;;;;;;;0.20;0.10;;;;;;;6.85;75.05;100686.88;5054733;27;102510;-29
2023/01/19 10:44:04;;;;;;;0.80;0.32;;;;;;;6.94;73.64;100681.06;5053417;27;100819;-29
2023/01/19 10:46:32;;;;;;;0.00;0.00;;;;;;;6.91;72.06;100687.47;5053277;27;100760;-30
2023/01/19 10:48:58;;;;;;;0.82;0.20;;;;;;;7.00;72.78;100686.13;5052843;27;96689;-29
2023/01/19 10:51:23;;;;;;;0.15;0.10;;;;;;;7.11;71.64;100693.69;5054937;27;96727;-29
2023/01/19 10:54:00;;;;;;;0.75;0.20;;;;;;;7.17;71.16;100682.59;5054412;27;98681;-29
2023/01/19 10:56:30;;;;;;;0.00;0.00;;;;;;;7.28;70.18;100690.16;5055082;27;98056;-29
2023/01/19 10:58:58;;;;;;;0.52;0.25;;;;;;;7.30;69.97;100697.19;5053315;27;96584;-29
2023/01/19 11:01:25;;;;;;;0.32;0.20;;;;;;;7.20;69.80;100677.06;5053216;27;96782;-30
2023/01/19 11:03:52;;;;;;;1.20;0.28;;;;;;;7.21;68.74;100690.44;5052504;27;100965;-30
2023/01/19 11:06:26;;;;;;;0.00;0.00;;;;;;;7.21;69.30;100694.97;5052985;27;101537;-29
2023/01/19 11:08:53;;;;;;;0.55;0.32;;;;;;;6.88;68.57;100692.97;5053169;27;96663;-29
2023/01/19 11:11:20;;;;;;;0.38;0.13;;;;;;;6.56;68.84;100690.03;5053206;27;96858;-29
2023/01/19 11:14:03;;;;;;;0.28;0.22;;;;;;;6.38;70.68;100694.44;5052956;27;99056;-30
2023/01/19 11:16:30;;;;;;;0.55;0.22;;;;;;;6.30;71.07;100696.63;5052888;27;100763;-29
2023/01/19 11:18:57;;;;;;;4.10;0.20;;;;;;;6.29;71.24;100696.69;5054053;27;96592;-29
2023/01/19 11:21:27;;;;;;;3.17;0.20;;;;;;;6.38;71.79;100697.13;5053432;27;96751;-28
2023/01/19 11:23:59;;;;;;;0.03;0.03;;;;;;;6.30;70.80;100698.47;5052556;27;101581;-29
2023/01/19 11:26:45;;;;;;;0.00;0.00;;;;;;;6.56;71.60;100687.34;5052615;27;99182;-29
2023/01/19 11:29:21;;;;;;;0.93;0.40;;;;;;;6.75;69.83;100686.47;5051966;27;97103;-30
2023/01/19 11:31:53;;;;;;;0.45;0.20;;;;;;;6.89;69.99;100683.97;5054312;27;96483;-31
2023/01/19 11:34:38;;;;;;;0.20;0.10;;;;;;;6.93;67.20;100679.28;5052592;27;101290;-29
2023/01/19 11:37:19;;;;;;;1.85;0.13;;;;;;;7.07;68.53;100686.69;5052182;27;101067;-30
2023/01/19 11:39:49;;;;;;;0.00;0.00;;;;;;;7.21;68.33;100679.66;5054228;27;96530;-30
2023/01/19 11:42:17;;;;;;;0.00;0.00;;;;;;;7.35;69.27;100670.88;5052719;27;96711;-30
2023/01/19 11:45:02;;;;;;;1.25;0.20;;;;;;;7.39;67.82;100682.41;5052530;27;100868;-29